sensor_id;sensor_type;location;lat;lon;timestamp;pressure;altitude;pressure_sealevel;temperature;humidity
73240;BME280;61452;40.054;4.110;2023-06-26T00:00:49;101916.59;;;25.90;78.77
73240;BME280;61452;40.054;4.110;2023-06-26T00:05:51;101915.47;;;25.92;78.70
73240;BME280;61452;40.054;4.110;2023-06-26T00:10:53;101914.63;;;25.92;78.89
73240;BME280;61452;40.054;4.110;2023-06-26T00:15:55;101907.56;;;25.91;79.33
73240;BME280;61452;40.054;4.110;2023-06-26T00:20:57;101906.97;;;25.87;79.94
73240;BME280;61452;40.054;4.110;2023-06-26T00:25:59;101901.47;;;25.89;79.30
73240;BME280;61452;40.054;4.110;2023-06-26T00:31:03;101904.28;;;25.87;79.14
73240;BME280;61452;40.054;4.110;2023-06-26T00:36:05;101898.91;;;25.87;78.80
73240;BME280;61452;40.054;4.110;2023-06-26T00:41:07;101900.94;;;25.85;78.85
73240;BME280;61452;40.054;4.110;2023-06-26T00:46:14;101896.69;;;25.83;78.74
73240;BME280;61452;40.054;4.110;2023-06-26T00:51:17;101893.28;;;25.81;78.39
73240;BME280;61452;40.054;4.110;2023-06-26T00:56:20;101894.13;;;25.81;78.58
73240;BME280;61452;40.054;4.110;2023-06-26T01:01:22;101885.22;;;25.81;78.54
73240;BME280;61452;40.054;4.110;2023-06-26T01:06:28;101881.53;;;25.82;78.59
73240;BME280;61452;40.054;4.110;2023-06-26T01:11:33;101891.31;;;25.83;79.40
73240;BME280;61452;40.054;4.110;2023-06-26T01:16:35;101889.00;;;25.88;80.06
73240;BME280;61452;40.054;4.110;2023-06-26T01:21:42;101897.94;;;25.88;79.91
73240;BME280;61452;40.054;4.110;2023-06-26T01:26:46;101900.88;;;25.95;80.94
73240;BME280;61452;40.054;4.110;2023-06-26T01:31:50;101892.09;;;26.02;82.40
73240;BME280;61452;40.054;4.110;2023-06-26T01:36:52;101886.72;;;26.02;83.46
73240;BME280;61452;40.054;4.110;2023-06-26T01:41:54;101875.94;;;26.02;83.96
73240;BME280;61452;40.054;4.110;2023-06-26T01:47:02;101872.88;;;25.97;84.62
73240;BME280;61452;40.054;4.110;2023-06-26T01:57:26;101869.47;;;25.95;84.64
73240;BME280;61452;40.054;4.110;2023-06-26T02:02:29;101870.31;;;25.96;84.48
73240;BME280;61452;40.054;4.110;2023-06-26T02:07:31;101885.59;;;25.95;84.14
73240;BME280;61452;40.054;4.110;2023-06-26T02:12:35;101882.91;;;25.95;84.43
73240;BME280;61452;40.054;4.110;2023-06-26T02:17:37;101883.22;;;25.92;84.49
73240;BME280;61452;40.054;4.110;2023-06-26T02:22:40;101876.53;;;25.96;85.34
73240;BME280;61452;40.054;4.110;2023-06-26T02:27:43;101874.84;;;25.95;85.05
73240;BME280;61452;40.054;4.110;2023-06-26T02:32:46;101871.44;;;25.93;85.62
73240;BME280;61452;40.054;4.110;2023-06-26T02:37:48;101862.84;;;25.90;85.48
73240;BME280;61452;40.054;4.110;2023-06-26T02:42:51;101872.59;;;25.91;85.14
73240;BME280;61452;40.054;4.110;2023-06-26T02:47:54;101882.50;;;25.90;84.67
73240;BME280;61452;40.054;4.110;2023-06-26T02:52:56;101891.28;;;25.92;84.44
73240;BME280;61452;40.054;4.110;2023-06-26T02:57:59;101890.25;;;25.93;84.24
73240;BME280;61452;40.054;4.110;2023-06-26T03:03:01;101887.75;;;25.92;84.63
73240;BME280;61452;40.054;4.110;2023-06-26T03:08:03;101892.41;;;25.90;84.87
73240;BME280;61452;40.054;4.110;2023-06-26T03:13:06;101888.03;;;25.89;84.25
73240;BME280;61452;40.054;4.110;2023-06-26T03:18:09;101884.50;;;25.88;84.24
73240;BME280;61452;40.054;4.110;2023-06-26T03:23:11;101884.63;;;25.87;84.19
73240;BME280;61452;40.054;4.110;2023-06-26T03:28:13;101877.59;;;25.86;83.71
73240;BME280;61452;40.054;4.110;2023-06-26T03:33:16;101881.09;;;25.86;83.33
73240;BME280;61452;40.054;4.110;2023-06-26T03:38:19;101881.78;;;25.88;82.91
73240;BME280;61452;40.054;4.110;2023-06-26T03:43:21;101882.66;;;25.89;83.24
73240;BME280;61452;40.054;4.110;2023-06-26T03:48:33;101884.34;;;25.90;83.24
73240;BME280;61452;40.054;4.110;2023-06-26T03:53:35;101879.41;;;25.85;83.39
73240;BME280;61452;40.054;4.110;2023-06-26T03:58:39;101889.16;;;25.86;83.33
73240;BME280;61452;40.054;4.110;2023-06-26T04:03:41;101898.06;;;25.87;83.17
73240;BME280;61452;40.054;4.110;2023-06-26T04:08:45;101891.16;;;25.84;82.48
73240;BME280;61452;40.054;4.110;2023-06-26T04:13:47;101885.94;;;25.83;82.50
73240;BME280;61452;40.054;4.110;2023-06-26T04:18:50;101890.31;;;25.84;83.03
73240;BME280;61452;40.054;4.110;2023-06-26T04:23:52;101882.38;;;25.82;83.17
73240;BME280;61452;40.054;4.110;2023-06-26T04:28:54;101891.84;;;25.86;83.51
73240;BME280;61452;40.054;4.110;2023-06-26T04:33:56;101900.22;;;25.83;83.67
73240;BME280;61452;40.054;4.110;2023-06-26T04:38:59;101899.38;;;25.83;84.29
73240;BME280;61452;40.054;4.110;2023-06-26T04:44:01;101901.19;;;25.82;83.96
73240;BME280;61452;40.054;4.110;2023-06-26T04:49:03;101902.06;;;25.83;84.58
73240;BME280;61452;40.054;4.110;2023-06-26T04:54:10;101894.31;;;25.80;85.00
73240;BME280;61452;40.054;4.110;2023-06-26T04:59:13;101889.59;;;25.82;85.37
73240;BME280;61452;40.054;4.110;2023-06-26T05:04:16;101890.59;;;25.81;85.55
73240;BME280;61452;40.054;4.110;2023-06-26T05:09:18;101898.66;;;25.81;86.13
73240;BME280;61452;40.054;4.110;2023-06-26T05:14:20;101899.38;;;25.83;86.45
73240;BME280;61452;40.054;4.110;2023-06-26T05:19:26;101894.00;;;25.83;86.21
73240;BME280;61452;40.054;4.110;2023-06-26T05:24:29;101890.31;;;25.84;86.72
73240;BME280;61452;40.054;4.110;2023-06-26T05:29:33;101893.84;;;25.84;86.27
73240;BME280;61452;40.054;4.110;2023-06-26T05:34:40;101901.06;;;25.84;86.77
73240;BME280;61452;40.054;4.110;2023-06-26T05:39:43;101899.75;;;25.88;87.44
73240;BME280;61452;40.054;4.110;2023-06-26T05:44:45;101903.75;;;25.84;86.61
73240;BME280;61452;40.054;4.110;2023-06-26T05:49:47;101904.47;;;25.86;86.84
73240;BME280;61452;40.054;4.110;2023-06-26T05:54:50;101909.97;;;25.84;85.96
73240;BME280;61452;40.054;4.110;2023-06-26T05:59:52;101907.84;;;25.88;86.35
73240;BME280;61452;40.054;4.110;2023-06-26T06:04:54;101908.41;;;25.91;87.45
73240;BME280;61452;40.054;4.110;2023-06-26T06:09:56;101905.16;;;25.88;86.53
73240;BME280;61452;40.054;4.110;2023-06-26T06:14:58;101897.09;;;25.88;86.54
73240;BME280;61452;40.054;4.110;2023-06-26T06:20:01;101901.53;;;26.06;87.55
73240;BME280;61452;40.054;4.110;2023-06-26T06:25:03;101905.06;;;26.07;87.46
73240;BME280;61452;40.054;4.110;2023-06-26T06:30:06;101899.16;;;26.03;87.25
73240;BME280;61452;40.054;4.110;2023-06-26T06:35:09;101911.16;;;26.09;87.52
73240;BME280;61452;40.054;4.110;2023-06-26T06:40:12;101913.28;;;26.05;85.76
73240;BME280;61452;40.054;4.110;2023-06-26T06:45:15;101910.78;;;26.04;84.47
73240;BME280;61452;40.054;4.110;2023-06-26T06:50:17;101915.84;;;26.07;83.22
73240;BME280;61452;40.054;4.110;2023-06-26T06:55:20;101921.34;;;26.05;82.56
73240;BME280;61452;40.054;4.110;2023-06-26T07:00:22;101924.91;;;26.06;81.95
73240;BME280;61452;40.054;4.110;2023-06-26T07:05:24;101933.28;;;26.03;81.47
73240;BME280;61452;40.054;4.110;2023-06-26T07:10:26;101930.19;;;25.98;81.57
73240;BME280;61452;40.054;4.110;2023-06-26T07:15:28;101937.81;;;26.02;80.56
73240;BME280;61452;40.054;4.110;2023-06-26T07:20:31;101939.19;;;26.06;81.96
73240;BME280;61452;40.054;4.110;2023-06-26T07:25:33;101938.34;;;26.06;82.32
73240;BME280;61452;40.054;4.110;2023-06-26T07:30:35;101946.13;;;26.09;81.23
73240;BME280;61452;40.054;4.110;2023-06-26T07:35:38;101940.44;;;26.12;79.92
73240;BME280;61452;40.054;4.110;2023-06-26T07:40:40;101946.13;;;26.09;80.36
73240;BME280;61452;40.054;4.110;2023-06-26T07:45:43;101948.09;;;26.07;80.22
73240;BME280;61452;40.054;4.110;2023-06-26T07:50:45;101953.78;;;26.04;78.41
73240;BME280;61452;40.054;4.110;2023-06-26T07:55:48;101951.97;;;26.04;79.07
73240;BME280;61452;40.054;4.110;2023-06-26T08:00:50;101951.50;;;26.09;77.76
73240;BME280;61452;40.054;4.110;2023-06-26T08:05:52;101948.25;;;26.05;78.34
73240;BME280;61452;40.054;4.110;2023-06-26T08:10:54;101945.81;;;26.12;78.45
73240;BME280;61452;40.054;4.110;2023-06-26T08:15:57;101957.13;;;26.25;78.03
73240;BME280;61452;40.054;4.110;2023-06-26T08:20:59;101956.25;;;26.34;78.75
73240;BME280;61452;40.054;4.110;2023-06-26T08:26:01;101953.13;;;26.39;77.16
73240;BME280;61452;40.054;4.110;2023-06-26T08:31:03;101962.03;;;26.39;76.67
73240;BME280;61452;40.054;4.110;2023-06-26T08:36:05;101972.91;;;26.47;77.81
73240;BME280;61452;40.054;4.110;2023-06-26T08:41:08;101975.59;;;26.47;78.02
73240;BME280;61452;40.054;4.110;2023-06-26T08:46:11;101959.16;;;26.50;76.86
73240;BME280;61452;40.054;4.110;2023-06-26T08:51:16;101970.06;;;26.49;76.46
73240;BME280;61452;40.054;4.110;2023-06-26T08:56:19;101968.47;;;26.56;76.45
73240;BME280;61452;40.054;4.110;2023-06-26T09:01:24;101975.09;;;26.62;77.38
73240;BME280;61452;40.054;4.110;2023-06-26T09:06:27;101980.66;;;26.60;74.34
73240;BME280;61452;40.054;4.110;2023-06-26T09:11:29;101986.44;;;26.55;74.43
73240;BME280;61452;40.054;4.110;2023-06-26T09:16:31;101972.72;;;26.58;73.68
73240;BME280;61452;40.054;4.110;2023-06-26T09:21:33;101985.13;;;26.69;75.93
73240;BME280;61452;40.054;4.110;2023-06-26T09:26:39;101988.34;;;26.73;77.72
73240;BME280;61452;40.054;4.110;2023-06-26T09:31:43;101991.03;;;26.73;77.95
73240;BME280;61452;40.054;4.110;2023-06-26T09:36:45;101993.72;;;26.73;77.48
73240;BME280;61452;40.054;4.110;2023-06-26T09:41:50;101984.22;;;26.78;76.77
73240;BME280;61452;40.054;4.110;2023-06-26T09:46:54;101992.97;;;26.80;75.61
73240;BME280;61452;40.054;4.110;2023-06-26T10:09:42;102004.91;;;26.78;77.55
73240;BME280;61452;40.054;4.110;2023-06-26T10:14:45;102005.53;;;26.62;78.14
73240;BME280;61452;40.054;4.110;2023-06-26T10:19:48;101999.56;;;26.68;80.57
73240;BME280;61452;40.054;4.110;2023-06-26T10:24:55;101998.88;;;26.66;79.36
73240;BME280;61452;40.054;4.110;2023-06-26T10:30:03;101999.81;;;26.75;78.64
73240;BME280;61452;40.054;4.110;2023-06-26T10:35:06;102013.13;;;26.76;73.95
73240;BME280;61452;40.054;4.110;2023-06-26T10:40:09;102015.38;;;26.81;72.81
73240;BME280;61452;40.054;4.110;2023-06-26T10:45:16;102023.31;;;26.82;75.46
73240;BME280;61452;40.054;4.110;2023-06-26T10:55:28;102020.06;;;26.79;79.46
73240;BME280;61452;40.054;4.110;2023-06-26T11:00:30;102023.44;;;26.81;78.38
73240;BME280;61452;40.054;4.110;2023-06-26T11:05:33;102021.00;;;26.87;77.67
73240;BME280;61452;40.054;4.110;2023-06-26T11:10:52;102017.69;;;27.03;76.46
73240;BME280;61452;40.054;4.110;2023-06-26T11:15:56;102016.53;;;27.06;72.52
73240;BME280;61452;40.054;4.110;2023-06-26T11:26:20;102025.00;;;27.11;75.86
73240;BME280;61452;40.054;4.110;2023-06-26T11:36:35;102027.25;;;27.15;77.88
73240;BME280;61452;40.054;4.110;2023-06-26T11:41:40;102022.69;;;27.16;78.91
73240;BME280;61452;40.054;4.110;2023-06-26T11:46:42;102015.56;;;27.24;77.49
73240;BME280;61452;40.054;4.110;2023-06-26T11:51:46;102011.72;;;27.27;76.05
73240;BME280;61452;40.054;4.110;2023-06-26T11:56:52;102010.53;;;27.29;75.83
73240;BME280;61452;40.054;4.110;2023-06-26T12:01:54;102007.19;;;27.27;75.80
73240;BME280;61452;40.054;4.110;2023-06-26T12:06:57;102002.16;;;27.32;77.54
73240;BME280;61452;40.054;4.110;2023-06-26T12:12:00;101994.22;;;27.31;77.95
73240;BME280;61452;40.054;4.110;2023-06-26T12:17:22;102000.75;;;27.28;79.79
73240;BME280;61452;40.054;4.110;2023-06-26T12:22:33;101997.47;;;27.34;79.41
73240;BME280;61452;40.054;4.110;2023-06-26T12:27:36;101998.00;;;27.38;74.33
73240;BME280;61452;40.054;4.110;2023-06-26T12:32:38;102003.53;;;27.36;73.28
73240;BME280;61452;40.054;4.110;2023-06-26T12:37:42;102000.56;;;27.40;73.39
73240;BME280;61452;40.054;4.110;2023-06-26T12:42:45;102002.63;;;27.46;72.21
73240;BME280;61452;40.054;4.110;2023-06-26T12:47:48;101993.13;;;27.51;71.40
73240;BME280;61452;40.054;4.110;2023-06-26T12:52:51;101999.03;;;27.55;73.11
73240;BME280;61452;40.054;4.110;2023-06-26T12:57:53;102002.09;;;27.60;72.56
73240;BME280;61452;40.054;4.110;2023-06-26T13:02:55;102001.09;;;27.61;71.59
73240;BME280;61452;40.054;4.110;2023-06-26T13:07:57;102003.78;;;27.61;70.53
73240;BME280;61452;40.054;4.110;2023-06-26T13:13:01;101996.88;;;27.58;69.86
73240;BME280;61452;40.054;4.110;2023-06-26T13:18:04;102003.16;;;27.67;68.94
73240;BME280;61452;40.054;4.110;2023-06-26T13:23:06;101999.84;;;27.73;69.99
73240;BME280;61452;40.054;4.110;2023-06-26T13:28:09;101993.38;;;27.66;70.88
73240;BME280;61452;40.054;4.110;2023-06-26T13:33:11;101994.09;;;27.68;71.98
73240;BME280;61452;40.054;4.110;2023-06-26T13:38:14;101988.22;;;27.72;73.90
73240;BME280;61452;40.054;4.110;2023-06-26T13:43:16;101992.25;;;27.68;74.71
73240;BME280;61452;40.054;4.110;2023-06-26T13:48:19;102001.19;;;27.69;75.10
73240;BME280;61452;40.054;4.110;2023-06-26T13:53:21;101982.38;;;27.77;74.57
73240;BME280;61452;40.054;4.110;2023-06-26T13:58:24;101982.31;;;27.69;73.79
73240;BME280;61452;40.054;4.110;2023-06-26T14:03:28;101983.03;;;27.79;74.30
73240;BME280;61452;40.054;4.110;2023-06-26T14:08:30;101969.41;;;27.81;77.17
73240;BME280;61452;40.054;4.110;2023-06-26T14:13:33;101967.88;;;27.78;74.54
73240;BME280;61452;40.054;4.110;2023-06-26T14:18:35;101964.16;;;27.79;72.44
73240;BME280;61452;40.054;4.110;2023-06-26T14:23:37;101959.97;;;27.76;72.45
73240;BME280;61452;40.054;4.110;2023-06-26T14:28:39;101949.16;;;27.76;73.48
73240;BME280;61452;40.054;4.110;2023-06-26T14:33:41;101952.00;;;27.75;75.98
73240;BME280;61452;40.054;4.110;2023-06-26T14:38:44;101949.81;;;27.70;75.42
73240;BME280;61452;40.054;4.110;2023-06-26T14:43:46;101952.94;;;27.66;75.71
73240;BME280;61452;40.054;4.110;2023-06-26T14:48:49;101940.94;;;27.43;76.16
73240;BME280;61452;40.054;4.110;2023-06-26T14:53:53;101938.16;;;27.34;76.14
73240;BME280;61452;40.054;4.110;2023-06-26T14:58:55;101938.78;;;27.28;76.07
73240;BME280;61452;40.054;4.110;2023-06-26T15:03:57;101931.19;;;27.24;76.35
73240;BME280;61452;40.054;4.110;2023-06-26T15:09:00;101919.88;;;27.20;76.69
73240;BME280;61452;40.054;4.110;2023-06-26T15:14:02;101930.94;;;27.17;77.12
73240;BME280;61452;40.054;4.110;2023-06-26T15:19:04;101917.94;;;27.13;77.43
73240;BME280;61452;40.054;4.110;2023-06-26T15:24:07;101917.09;;;27.12;77.25
73240;BME280;61452;40.054;4.110;2023-06-26T15:29:09;101916.25;;;27.12;77.61
73240;BME280;61452;40.054;4.110;2023-06-26T15:34:11;101913.03;;;27.08;77.66
73240;BME280;61452;40.054;4.110;2023-06-26T15:39:15;101916.56;;;27.09;77.81
73240;BME280;61452;40.054;4.110;2023-06-26T15:44:17;101912.72;;;27.11;77.90
73240;BME280;61452;40.054;4.110;2023-06-26T15:49:20;101905.25;;;27.05;78.07
73240;BME280;61452;40.054;4.110;2023-06-26T15:54:22;101895.66;;;27.03;78.37
73240;BME280;61452;40.054;4.110;2023-06-26T15:59:24;101897.63;;;27.01;77.66
73240;BME280;61452;40.054;4.110;2023-06-26T16:04:26;101895.09;;;26.99;77.72
73240;BME280;61452;40.054;4.110;2023-06-26T16:09:28;101882.47;;;27.00;77.17
73240;BME280;61452;40.054;4.110;2023-06-26T16:14:31;101875.56;;;26.97;77.23
73240;BME280;61452;40.054;4.110;2023-06-26T16:19:33;101879.53;;;26.93;77.32
73240;BME280;61452;40.054;4.110;2023-06-26T16:24:35;101874.50;;;26.90;77.11
73240;BME280;61452;40.054;4.110;2023-06-26T16:29:37;101872.91;;;26.87;76.96
73240;BME280;61452;40.054;4.110;2023-06-26T16:34:40;101867.00;;;26.84;77.13
73240;BME280;61452;40.054;4.110;2023-06-26T16:39:42;101864.31;;;26.84;77.56
73240;BME280;61452;40.054;4.110;2023-06-26T16:44:44;101873.22;;;26.84;76.82
73240;BME280;61452;40.054;4.110;2023-06-26T16:49:46;101866.81;;;26.85;76.53
73240;BME280;61452;40.054;4.110;2023-06-26T16:54:48;101855.38;;;26.83;77.16
73240;BME280;61452;40.054;4.110;2023-06-26T16:59:51;101876.75;;;26.85;77.23
73240;BME280;61452;40.054;4.110;2023-06-26T17:04:53;101871.34;;;26.85;77.08
73240;BME280;61452;40.054;4.110;2023-06-26T17:09:55;101870.53;;;26.84;77.21
73240;BME280;61452;40.054;4.110;2023-06-26T17:14:57;101865.28;;;26.83;77.09
73240;BME280;61452;40.054;4.110;2023-06-26T17:20:01;101859.44;;;26.87;77.12
73240;BME280;61452;40.054;4.110;2023-06-26T17:25:05;101859.31;;;26.89;76.76
73240;BME280;61452;40.054;4.110;2023-06-26T17:30:09;101858.16;;;26.91;76.77
73240;BME280;61452;40.054;4.110;2023-06-26T17:35:11;101853.63;;;26.92;76.66
73240;BME280;61452;40.054;4.110;2023-06-26T17:40:13;101861.88;;;26.90;76.59
73240;BME280;61452;40.054;4.110;2023-06-26T17:45:15;101852.09;;;26.89;76.46
73240;BME280;61452;40.054;4.110;2023-06-26T17:50:17;101849.66;;;26.86;76.93
73240;BME280;61452;40.054;4.110;2023-06-26T17:55:20;101850.13;;;26.82;76.63
73240;BME280;61452;40.054;4.110;2023-06-26T18:00:22;101851.69;;;26.84;76.75
73240;BME280;61452;40.054;4.110;2023-06-26T18:05:24;101849.28;;;26.81;76.25
73240;BME280;61452;40.054;4.110;2023-06-26T18:10:28;101861.91;;;26.81;75.15
73240;BME280;61452;40.054;4.110;2023-06-26T18:15:30;101861.75;;;26.82;75.39
73240;BME280;61452;40.054;4.110;2023-06-26T18:20:32;101881.31;;;26.84;75.05
73240;BME280;61452;40.054;4.110;2023-06-26T18:25:34;101876.06;;;26.83;75.44
73240;BME280;61452;40.054;4.110;2023-06-26T18:30:36;101868.47;;;26.96;74.14
73240;BME280;61452;40.054;4.110;2023-06-26T18:35:39;101868.53;;;27.04;72.89
73240;BME280;61452;40.054;4.110;2023-06-26T18:40:42;101869.34;;;26.96;74.31
73240;BME280;61452;40.054;4.110;2023-06-26T18:45:44;101858.56;;;26.96;72.50
